Bryson City, NC (28713)

03:42 EDT le 24 octobre 2014 (GMT -0400)
Buckner Branch | Change Station
CLOSE
Current Station
Stations météorologiques personnelles
Location: Bryson City, NC
Altitude: 1900 ft
Stations météo à proximité

Alt. 1900 ft 35.42 °N, 83.48 °W | Updated 10 minutes ago

Partiellement nuageux
Partiellement nuageux
38.7 ° F
Paraît 39 ° F
N
0.0
Vent Variable Vent de SSO

Aujourd'hui
Haut(e) -- | Bas -- ° F
--% Risque de précip.
Hier
Haut(e) -- | Bas -- ° F
Precip. -- pouce
7:48 AM 6:47 PM
Nouvelle lune, 0% visible
Pression 30.08 pouce
Visibilité 10.0 Miles terrestres
Nuages Ciel dégagé
Refroidissement éolien 39 ° F
Point de rosée 37 ° F
Humidité 95%
Précipitations 0.00 pouce
Profondeur de la couche neigeuse Non disponible.
UV 0 sur 12
Pollen .90 sur 12
Ozone Bon
PM2.5 Moyen
Flu Activity Sporadic
METAR KRHP 240735Z AUTO 00000KT 10SM CLR 05/04 A3008 RMK AO2 T00450043

More Conditions Fewer Conditions

Pression 30.08 pouce
Visibilité 10.0 Miles terrestres
Nuages Ciel dégagé
Refroidissement éolien 39 ° F
Point de rosée 37 ° F
Humidité 95%
Précipitations 0.00 pouce
Profondeur de la couche neigeuse Non disponible.
UV 0 sur 12
Pollen .90 sur 12
Ozone Bon
PM2.5 Moyen
Flu Activity Sporadic
METAR KRHP 240735Z AUTO 00000KT 10SM CLR 05/04 A3008 RMK AO2 T00450043

More Conditions Fewer Conditions

10-Day Weather Forecast

Almanac

Astronomie

Oct. 24, 2014 Lever Coucher
Temps réel 07:48 EDT 18:47 EDT
Crépuscule civil 07:22 EDT 19:13 EDT
Crépuscule nautique 06:52 EDT 19:43 EDT
Crépuscule astronomique 06:22 EDT 20:12 EDT
Lune 08:24 EDT 19:28 EDT
Durée de lumière visible 11h 51m
Longueur du jour
10h 59m
Tomorrow will be 2m 3s shorter.
Nouvelle lune, 0% of the Moon is Illuminated
Aujourd'hui
Nouvelle lune
Oct 30
Premier quartier
Nov 6
Pleine lune
Nov 14
Dernier quartier
Nov 22
Nouveau

Extrêmes aujourd'hui

State Highs State Lows

Community

WunderPhotos

Upload Photos

1,764,512 Photos téléchargées !

WunderBlogs® & News

Nearby

Qualité de l'air

  Qualité de l'air Indice de la qualité de l'air Polluant
Hier Bon
PM2.5
Hier Bon
OZONE
Actuel Moyen
PM2.5
Actuel Bon
OZONE
vendredi Bon
PM2.5
vendredi Bon
OZONE
samedi Bon
PM2.5
samedi Bon
OZONE
dimanche Bon
PM2.5
dimanche Bon
OZONE

Épaisseur de neige

Station Depth Altitude
Pas de nouvelles chutes de neige

Activité sismique

Ville Distance Mag. Time & Date
No recent earthquake activity has been reported nearby.
Minimum magnitude displayed is 2.5.

Températures des eaux côtières

Lieu Température
Aucun rapport de station

Stations météo à proximité